Main page
METAR-TAF:

METAR-TAF

Airports :

Tulcea Airport

Tulcea, Romania

latitude: 45-11N, longitude: 028-49E, elevation: 4 m

Current weather observation

The report was made 38 minutes ago, at 19:30 UTC
Wind 16 kt from the West
Temperature 1°C
Humidity 64%
Pressure 1032 hPa
Visibility 10 km or more

METAR: LRTC 211930Z AUTO 26016KT 9999 NCD 01/M05 Q1032

Time: 22:08 (20:08 UTC)

Forecast

The report was made 9 hours and 8 minutes ago, at 11:00 UTC
Forecast valid from 21 at 12 UTC to 21 at 21 UTC
Wind 16 kt from the Northwest
Visibility 10 km or more
no clouds below 1500 m and no cumulonimbus

TAF: LRTC 211100Z 2112/2121 31016KT CAVOK

Weather observations and forecasts of more than 4000 airports (METAR and TAF reports).

The available stations are represented by yellow and red dots on the map.

Hover mouse over dot to see the name of the station.

Then click to see weather observations and forecasts.

To change the map : click on the green buttons with a black cross to zoom in, on the green button with a dash to zoom out, or on the green arrows for adjacent maps.


METAR-TAF: